createdAt,value
2022-12-01T00:01:41.637Z,19.97
2022-12-01T00:04:10.063Z,23.93
2022-12-01T00:06:38.389Z,21.70
2022-12-01T00:09:25.598Z,22.70
2022-12-01T00:11:53.718Z,23.23
2022-12-01T00:14:21.878Z,21.10
2022-12-01T00:16:52.645Z,20.90
2022-12-01T00:19:21.022Z,22.90
2022-12-01T00:21:49.439Z,21.70
2022-12-01T00:24:19.062Z,21.37
2022-12-01T00:26:47.223Z,24.87
2022-12-01T00:29:21.277Z,23.13
2022-12-01T00:31:49.453Z,24.17
2022-12-01T00:34:23.608Z,22.13
2022-12-01T00:36:51.794Z,22.83
2022-12-01T00:39:24.406Z,21.90
2022-12-01T00:41:52.857Z,24.97
2022-12-01T00:44:23.473Z,23.33
2022-12-01T00:46:51.776Z,21.73
2022-12-01T00:49:22.327Z,24.10
2022-12-01T00:51:50.719Z,25.67
2022-12-01T00:54:20.420Z,25.30
2022-12-01T00:56:48.643Z,23.83
2022-12-01T00:59:17.015Z,24.67
2022-12-01T01:01:46.933Z,23.77
2022-12-01T01:04:15.203Z,24.70
2022-12-01T01:06:44.103Z,25.63
2022-12-01T01:09:12.684Z,25.97
2022-12-01T01:11:46.374Z,26.47
2022-12-01T01:14:16.698Z,24.73
2022-12-01T01:16:45.104Z,26.00
2022-12-01T01:19:13.499Z,26.70
2022-12-01T01:21:41.815Z,23.77
2022-12-01T01:24:11.478Z,24.77
2022-12-01T01:26:41.230Z,24.23
2022-12-01T01:29:10.192Z,25.53
2022-12-01T01:31:41.913Z,22.90
2022-12-01T01:34:10.233Z,23.53
2022-12-01T01:36:38.403Z,24.40
2022-12-01T01:39:06.732Z,25.77
2022-12-01T01:41:35.066Z,23.53
2022-12-01T01:44:21.105Z,23.30
2022-12-01T01:46:49.318Z,25.77
2022-12-01T01:49:20.338Z,24.23
2022-12-01T01:51:50.477Z,24.53
2022-12-01T01:54:20.675Z,24.93
2022-12-01T01:56:49.144Z,24.17
2022-12-01T01:59:21.202Z,23.50
2022-12-01T02:01:51.873Z,25.13
2022-12-01T02:04:23.173Z,28.00
2022-12-01T02:06:51.369Z,25.73
2022-12-01T02:09:22.127Z,27.40
2022-12-01T02:11:59.714Z,27.23
2022-12-01T02:14:52.256Z,24.00
2022-12-01T02:17:26.436Z,27.37
2022-12-01T02:20:12.666Z,28.17
2022-12-01T02:22:45.026Z,26.33
2022-12-01T02:25:27.339Z,24.77
2022-12-01T02:28:14.221Z,25.40
2022-12-01T02:30:48.983Z,25.47
2022-12-01T02:33:23.868Z,23.77
2022-12-01T02:35:57.024Z,23.33
2022-12-01T02:38:29.790Z,24.77
2022-12-01T02:41:00.407Z,25.20
2022-12-01T02:43:33.390Z,23.67
2022-12-01T02:46:06.083Z,27.30
2022-12-01T02:48:35.347Z,22.97
2022-12-01T02:51:06.278Z,23.20
2022-12-01T02:53:35.938Z,23.50
2022-12-01T02:56:07.575Z,24.20
2022-12-01T02:58:35.789Z,24.83
2022-12-01T03:01:12.431Z,22.37
2022-12-01T03:03:53.543Z,25.83
2022-12-01T03:06:25.966Z,26.43
2022-12-01T03:08:58.649Z,25.17
2022-12-01T03:11:29.976Z,24.70
2022-12-01T03:14:07.860Z,22.70
2022-12-01T03:16:40.309Z,22.27
2022-12-01T03:19:09.507Z,23.73
2022-12-01T03:21:40.740Z,22.90
2022-12-01T03:24:16.513Z,23.90
2022-12-01T03:26:46.087Z,23.17
2022-12-01T03:29:16.276Z,25.43
2022-12-01T03:31:49.179Z,23.20
2022-12-01T03:34:24.103Z,24.57
2022-12-01T03:36:55.390Z,23.83
2022-12-01T03:39:25.196Z,22.67
2022-12-01T03:41:54.750Z,24.60
2022-12-01T03:44:27.105Z,24.10
2022-12-01T03:46:58.204Z,22.77
2022-12-01T03:49:26.956Z,23.57
2022-12-01T03:52:00.286Z,25.33
2022-12-01T03:54:35.070Z,25.63
2022-12-01T03:57:05.481Z,23.80
2022-12-01T03:59:35.690Z,25.20
2022-12-01T04:02:06.447Z,26.30
2022-12-01T04:04:37.780Z,24.73
2022-12-01T04:07:05.968Z,25.47
2022-12-01T04:09:34.340Z,24.90
2022-12-01T04:12:20.239Z,24.30
2022-12-01T04:14:50.020Z,27.37
2022-12-01T04:17:19.747Z,24.50
2022-12-01T04:19:48.306Z,26.23
2022-12-01T04:22:16.607Z,25.20
2022-12-01T04:24:44.793Z,26.07
2022-12-01T04:27:13.058Z,23.33
2022-12-01T04:29:44.104Z,24.87
2022-12-01T04:32:13.578Z,24.17
2022-12-01T04:34:44.907Z,24.33
2022-12-01T04:37:13.732Z,27.13
2022-12-01T04:39:43.255Z,27.40
2022-12-01T04:42:14.164Z,26.60
2022-12-01T04:44:42.580Z,26.20
2022-12-01T04:47:14.081Z,28.33
2022-12-01T04:49:45.519Z,26.30
2022-12-01T04:52:13.839Z,28.87
2022-12-01T04:54:42.081Z,24.57
2022-12-01T04:57:10.244Z,25.50
2022-12-01T04:59:49.592Z,23.90
2022-12-01T05:02:18.183Z,26.63
2022-12-01T05:04:50.840Z,26.27
2022-12-01T05:07:19.893Z,24.20
2022-12-01T05:10:19.101Z,25.43
2022-12-01T05:12:47.553Z,26.30
2022-12-01T05:15:15.822Z,24.93
2022-12-01T05:17:46.100Z,23.23
2022-12-01T05:20:40.328Z,24.33
2022-12-01T05:23:15.265Z,26.60
2022-12-01T05:25:50.515Z,26.07
2022-12-01T05:28:23.329Z,26.63
2022-12-01T05:30:52.718Z,27.17
2022-12-01T05:33:21.094Z,26.07
2022-12-01T05:35:56.296Z,24.77
2022-12-01T05:38:25.835Z,26.10
2022-12-01T05:40:56.106Z,27.73
2022-12-01T05:43:29.576Z,24.20
2022-12-01T05:46:03.639Z,26.47
2022-12-01T05:48:35.226Z,26.57
2022-12-01T05:51:18.386Z,28.77
2022-12-01T05:53:56.143Z,28.37
2022-12-01T05:56:30.578Z,26.57
2022-12-01T05:58:59.339Z,27.40
2022-12-01T06:01:30.000Z,25.90
2022-12-01T06:04:06.604Z,27.60
2022-12-01T06:06:38.315Z,25.07
2022-12-01T06:09:06.675Z,25.87
2022-12-01T06:11:38.512Z,26.17
2022-12-01T06:14:07.100Z,24.93
2022-12-01T06:16:37.969Z,26.60
2022-12-01T06:19:08.457Z,25.80
2022-12-01T06:21:45.748Z,27.00
2022-12-01T06:24:14.794Z,28.73
2022-12-01T06:26:43.329Z,29.70
2022-12-01T06:29:16.936Z,27.57
2022-12-01T06:31:45.363Z,26.90
2022-12-01T06:34:13.743Z,27.07
2022-12-01T06:36:43.392Z,28.17
2022-12-01T06:39:12.024Z,27.10
2022-12-01T06:41:43.442Z,30.83
2022-12-01T06:44:11.803Z,27.90
2022-12-01T06:46:40.116Z,27.43
2022-12-01T06:49:15.369Z,28.07
2022-12-01T06:51:45.501Z,28.47
2022-12-01T06:54:17.967Z,25.70
2022-12-01T06:56:51.356Z,25.50
2022-12-01T06:59:22.915Z,26.60
2022-12-01T07:01:51.720Z,26.40
2022-12-01T07:04:20.206Z,29.87
2022-12-01T07:06:55.344Z,25.70
2022-12-01T07:09:26.684Z,27.27
2022-12-01T07:11:54.895Z,29.57
2022-12-01T07:14:35.056Z,28.93
2022-12-01T07:17:03.458Z,27.40
2022-12-01T07:19:34.867Z,25.43
2022-12-01T07:22:04.999Z,26.97
2022-12-01T07:24:43.359Z,28.90
2022-12-01T07:27:14.496Z,26.50
2022-12-01T07:29:45.879Z,27.43
2022-12-01T07:32:16.751Z,26.17
2022-12-01T07:34:45.014Z,28.60
2022-12-01T07:37:16.049Z,28.80
2022-12-01T07:39:47.513Z,27.53
2022-12-01T07:42:15.930Z,25.23
2022-12-01T07:44:44.290Z,27.37
2022-12-01T07:47:18.158Z,29.40
2022-12-01T07:49:48.090Z,27.57
2022-12-01T07:52:21.292Z,27.80
2022-12-01T07:54:52.786Z,26.80
2022-12-01T07:57:21.038Z,28.63
2022-12-01T07:59:50.405Z,28.90
2022-12-01T08:02:18.802Z,28.57
2022-12-01T08:04:49.473Z,29.03
2022-12-01T08:07:19.105Z,30.03
2022-12-01T08:09:54.962Z,29.63
2022-12-01T08:12:23.093Z,33.77
2022-12-01T08:14:51.287Z,32.07
2022-12-01T08:17:19.427Z,31.73
2022-12-01T08:19:48.080Z,31.00
2022-12-01T08:22:20.970Z,32.80
2022-12-01T08:24:51.777Z,30.23
2022-12-01T08:27:19.896Z,31.87
2022-12-01T08:29:48.368Z,29.27
2022-12-01T08:32:20.328Z,31.87
2022-12-01T08:34:53.317Z,31.53
2022-12-01T08:37:26.037Z,32.50
2022-12-01T08:39:55.652Z,30.97
2022-12-01T08:42:27.561Z,32.73
2022-12-01T08:44:59.407Z,33.97
2022-12-01T08:47:29.245Z,31.03
2022-12-01T08:49:57.447Z,31.93
2022-12-01T08:52:34.553Z,32.80
2022-12-01T08:55:12.264Z,32.17
2022-12-01T08:57:40.735Z,33.63
2022-12-01T09:00:15.708Z,33.30
2022-12-01T09:02:45.487Z,30.30
2022-12-01T09:05:14.186Z,30.87
2022-12-01T09:08:08.256Z,29.87
2022-12-01T09:10:36.883Z,31.27
2022-12-01T09:13:08.400Z,32.87
2022-12-01T09:15:36.687Z,32.07
2022-12-01T09:18:04.981Z,30.57
2022-12-01T09:20:33.859Z,27.67
2022-12-01T09:25:45.975Z,28.07
2022-12-01T09:28:14.507Z,30.37
2022-12-01T09:30:45.310Z,30.50
2022-12-01T09:33:15.072Z,28.77
2022-12-01T09:35:46.153Z,26.83
2022-12-01T09:38:21.451Z,26.20
2022-12-01T09:40:49.782Z,26.13
2022-12-01T09:43:19.652Z,26.73
2022-12-01T09:46:04.217Z,25.87
2022-12-01T09:48:42.668Z,26.17
2022-12-01T09:51:14.144Z,24.87
2022-12-01T09:53:44.364Z,26.50
2022-12-01T09:56:19.997Z,24.43
2022-12-01T09:58:48.846Z,23.50
2022-12-01T10:01:25.821Z,24.87
2022-12-01T10:03:59.485Z,23.03
2022-12-01T10:06:36.013Z,24.90
2022-12-01T10:09:11.701Z,21.97
2022-12-01T10:11:46.333Z,15.17
2022-12-01T10:14:19.979Z,20.23
2022-12-01T10:17:05.767Z,22.53
2022-12-01T10:19:39.915Z,22.93
2022-12-01T10:23:00.341Z,23.33
2022-12-01T10:25:38.313Z,21.70
2022-12-01T10:28:13.943Z,21.57
2022-12-01T10:30:57.226Z,22.00
2022-12-01T10:33:38.973Z,22.00
2022-12-01T10:36:08.019Z,22.80
2022-12-01T10:38:48.838Z,22.20
2022-12-01T10:41:21.414Z,21.90
2022-12-01T10:43:54.325Z,21.47
2022-12-01T10:46:25.181Z,21.03
2022-12-01T10:48:54.957Z,20.47
2022-12-01T10:51:24.328Z,20.70
2022-12-01T10:53:59.792Z,20.97
2022-12-01T10:56:42.492Z,20.40
2022-12-01T10:59:31.982Z,21.83
2022-12-01T11:02:00.650Z,21.23
2022-12-01T11:04:45.405Z,20.43
2022-12-01T11:07:18.817Z,22.30
2022-12-01T11:09:52.924Z,21.67
2022-12-01T11:12:25.235Z,20.30
2022-12-01T11:14:55.635Z,18.13
2022-12-01T11:17:30.571Z,17.40
2022-12-01T11:19:59.009Z,20.07
2022-12-01T11:22:34.415Z,17.80
2022-12-01T11:25:04.913Z,18.17
2022-12-01T11:27:57.596Z,18.37
2022-12-01T11:30:34.505Z,17.77
2022-12-01T11:33:13.828Z,17.17
2022-12-01T11:35:43.857Z,18.50
2022-12-01T11:38:30.742Z,18.40
2022-12-01T11:41:12.082Z,19.07
2022-12-01T11:44:02.770Z,19.47
2022-12-01T11:46:55.834Z,16.70
2022-12-01T11:49:45.521Z,17.57
2022-12-01T11:52:21.566Z,17.43
2022-12-01T11:54:57.374Z,16.20
2022-12-01T11:57:34.074Z,15.93
2022-12-01T12:00:35.882Z,17.27
2022-12-01T12:03:33.763Z,16.37
2022-12-01T12:06:43.970Z,16.50
2022-12-01T12:09:45.099Z,17.17
2022-12-01T12:12:39.208Z,15.93
2022-12-01T12:15:21.062Z,15.73
2022-12-01T12:18:21.478Z,16.03
2022-12-01T12:21:09.450Z,15.40
2022-12-01T12:24:04.015Z,14.77
2022-12-01T12:26:50.618Z,15.37
2022-12-01T12:29:52.390Z,14.40
2022-12-01T12:32:37.559Z,13.93
2022-12-01T12:35:25.187Z,14.47
2022-12-01T12:38:10.928Z,13.57
2022-12-01T12:40:51.554Z,13.60
2022-12-01T12:43:40.545Z,14.47
2022-12-01T12:46:17.760Z,13.87
2022-12-01T12:49:20.199Z,12.23
2022-12-01T12:51:54.235Z,12.17
2022-12-01T12:55:05.870Z,11.70
2022-12-01T13:00:55.509Z,13.50
2022-12-01T13:03:34.354Z,13.83
2022-12-01T13:06:28.607Z,13.53
2022-12-01T13:09:15.116Z,13.50
2022-12-01T13:12:17.675Z,13.47
2022-12-01T13:15:27.053Z,13.07
2022-12-01T13:21:25.517Z,13.20
2022-12-01T13:24:25.659Z,12.47
2022-12-01T13:31:13.722Z,12.20
2022-12-01T13:37:54.209Z,11.43
2022-12-01T13:41:07.484Z,12.87
2022-12-01T13:44:53.523Z,10.10
2022-12-01T13:47:51.385Z,9.40
2022-12-01T13:51:16.669Z,9.57
2022-12-01T13:54:51.007Z,10.67
2022-12-01T14:04:19.085Z,9.17
2022-12-01T14:07:51.679Z,8.80
2022-12-01T14:11:28.482Z,9.77
2022-12-01T14:18:00.385Z,8.70
2022-12-01T14:21:35.870Z,9.63
2022-12-01T14:25:00.848Z,9.47
2022-12-01T14:31:49.495Z,10.40
2022-12-01T14:35:15.092Z,10.03
2022-12-01T14:38:20.561Z,9.37
2022-12-01T14:41:27.028Z,9.07
2022-12-01T14:47:26.577Z,8.77
2022-12-01T14:50:18.230Z,9.93
2022-12-01T14:53:06.650Z,9.80
2022-12-01T14:55:51.534Z,9.43
2022-12-01T14:58:30.937Z,7.47
2022-12-01T15:01:07.824Z,8.27
2022-12-01T15:03:46.861Z,7.60
2022-12-01T15:06:20.018Z,8.43
2022-12-01T15:09:10.636Z,8.57
2022-12-01T15:11:50.253Z,7.63
2022-12-01T15:14:40.347Z,7.70
2022-12-01T15:17:43.686Z,9.37
2022-12-01T15:20:34.928Z,8.30
2022-12-01T15:23:03.733Z,7.87
2022-12-01T15:25:37.170Z,7.30
2022-12-01T15:28:14.401Z,7.33
2022-12-01T15:31:16.705Z,7.33
2022-12-01T15:33:51.013Z,7.97
2022-12-01T15:36:29.957Z,8.63
2022-12-01T15:39:07.094Z,7.83
2022-12-01T15:41:39.125Z,7.73
2022-12-01T15:44:17.088Z,7.13
2022-12-01T15:46:52.042Z,7.80
2022-12-01T15:49:33.095Z,7.03
2022-12-01T15:52:27.620Z,7.23
2022-12-01T15:54:57.682Z,8.43
2022-12-01T15:57:27.031Z,8.83
2022-12-01T16:00:03.796Z,8.77
2022-12-01T16:02:56.385Z,7.40
2022-12-01T16:05:29.111Z,8.03
2022-12-01T16:08:16.527Z,9.50
2022-12-01T16:10:45.318Z,7.80
2022-12-01T16:13:39.601Z,9.80
2022-12-01T16:16:39.618Z,9.97
2022-12-01T16:19:25.803Z,10.53
2022-12-01T16:22:04.759Z,9.17
2022-12-01T16:24:35.258Z,9.87
2022-12-01T16:27:05.581Z,10.10
2022-12-01T16:29:37.666Z,9.80
2022-12-01T16:32:21.603Z,9.30
2022-12-01T16:34:53.981Z,10.43
2022-12-01T16:37:27.763Z,9.63
2022-12-01T16:39:56.155Z,10.87
2022-12-01T16:42:24.514Z,9.77
2022-12-01T16:44:53.202Z,9.97
2022-12-01T16:47:23.422Z,11.73
2022-12-01T16:49:51.861Z,10.13
2022-12-01T16:55:22.313Z,10.33
2022-12-01T16:57:50.734Z,10.33
2022-12-01T17:00:19.613Z,10.57
2022-12-01T17:02:47.976Z,10.87
2022-12-01T17:05:16.587Z,9.40
2022-12-01T17:07:45.080Z,9.13
2022-12-01T17:10:16.714Z,10.10
2022-12-01T17:12:49.174Z,9.80
2022-12-01T17:15:18.025Z,9.70
2022-12-01T17:17:49.655Z,9.93
2022-12-01T17:20:18.398Z,10.40
2022-12-01T17:22:46.899Z,8.80
2022-12-01T17:25:17.759Z,10.60
2022-12-01T17:27:46.327Z,9.30
2022-12-01T17:30:15.218Z,9.80
2022-12-01T17:32:46.662Z,10.50
2022-12-01T17:35:15.057Z,9.73
2022-12-01T17:37:54.802Z,10.23
2022-12-01T17:40:26.218Z,11.43
2022-12-01T17:42:54.515Z,9.83
2022-12-01T17:45:23.110Z,11.00
2022-12-01T17:47:53.668Z,10.57
2022-12-01T17:50:22.038Z,12.20
2022-12-01T17:52:50.340Z,11.27
2022-12-01T17:55:19.618Z,13.00
2022-12-01T17:58:05.969Z,13.07
2022-12-01T18:00:34.589Z,14.10
2022-12-01T18:03:18.200Z,13.63
2022-12-01T18:06:08.245Z,13.67
2022-12-01T18:08:39.900Z,17.07
2022-12-01T18:11:15.688Z,15.07
2022-12-01T18:13:46.539Z,15.50
2022-12-01T18:16:15.962Z,15.87
2022-12-01T18:18:49.247Z,14.50
2022-12-01T18:21:21.899Z,14.57
2022-12-01T18:23:54.139Z,14.13
2022-12-01T18:26:22.629Z,14.53
2022-12-01T18:29:06.326Z,14.43
2022-12-01T18:31:36.437Z,14.73
2022-12-01T18:34:07.251Z,13.47
2022-12-01T18:36:49.743Z,14.37
2022-12-01T18:39:28.587Z,15.03
2022-12-01T18:42:06.718Z,14.30
2022-12-01T18:44:50.551Z,13.47
2022-12-01T18:47:18.907Z,13.53
2022-12-01T18:49:47.164Z,14.63
2022-12-01T18:52:15.423Z,13.67
2022-12-01T18:54:43.943Z,13.63
2022-12-01T18:57:12.165Z,13.50
2022-12-01T18:59:50.786Z,13.87
2022-12-01T19:02:27.898Z,12.50
2022-12-01T19:04:56.296Z,12.90
2022-12-01T19:07:29.547Z,14.40
2022-12-01T19:10:01.186Z,12.60
2022-12-01T19:12:31.836Z,13.93
2022-12-01T19:15:03.795Z,17.00
2022-12-01T19:17:32.045Z,15.70
2022-12-01T19:20:00.320Z,13.43
2022-12-01T19:22:28.665Z,11.10
2022-12-01T19:24:57.873Z,11.23
2022-12-01T19:27:26.102Z,11.33
2022-12-01T19:29:54.629Z,9.63
2022-12-01T19:32:24.397Z,10.20
2022-12-01T19:34:55.457Z,11.40
2022-12-01T19:37:26.631Z,9.53
2022-12-01T19:39:54.843Z,11.77
2022-12-01T19:42:32.411Z,12.90
2022-12-01T19:45:06.757Z,11.57
2022-12-01T19:47:36.661Z,12.57
2022-12-01T19:50:05.368Z,15.03
2022-12-01T19:52:34.076Z,15.53
2022-12-01T19:55:12.611Z,14.37
2022-12-01T19:57:40.927Z,13.17
2022-12-01T20:00:10.527Z,12.67
2022-12-01T20:02:40.161Z,16.07
2022-12-01T20:05:12.348Z,12.13
2022-12-01T20:07:40.597Z,12.77
2022-12-01T20:10:14.394Z,12.93
2022-12-01T20:12:45.555Z,13.20
2022-12-01T20:15:15.771Z,14.40
2022-12-01T20:17:50.426Z,17.53
2022-12-01T20:20:20.782Z,13.70
2022-12-01T20:22:56.516Z,13.43
2022-12-01T20:25:36.554Z,13.50
2022-12-01T20:28:08.192Z,13.07
2022-12-01T20:30:41.069Z,13.97
2022-12-01T20:33:18.102Z,12.03
2022-12-01T20:35:46.280Z,14.47
2022-12-01T20:38:25.761Z,12.90
2022-12-01T20:41:03.256Z,15.47
2022-12-01T20:43:49.762Z,13.67
2022-12-01T20:46:23.985Z,14.47
2022-12-01T20:48:55.193Z,13.00
2022-12-01T20:51:23.702Z,13.93
2022-12-01T20:54:26.116Z,12.57
2022-12-01T20:56:49.811Z,15.80
2022-12-01T20:59:36.523Z,14.20
2022-12-01T21:02:07.664Z,14.87
2022-12-01T21:04:39.060Z,14.00
2022-12-01T21:07:07.632Z,16.10
2022-12-01T21:09:36.022Z,17.00
2022-12-01T21:12:23.881Z,18.10
2022-12-01T21:14:59.063Z,15.17
2022-12-01T21:17:33.123Z,14.77
2022-12-01T21:20:23.989Z,15.73
2022-12-01T21:22:58.097Z,13.37
2022-12-01T21:25:27.670Z,14.33
2022-12-01T21:27:57.453Z,15.63
2022-12-01T21:30:32.073Z,15.40
2022-12-01T21:33:11.299Z,15.17
2022-12-01T21:35:49.256Z,14.50
2022-12-01T21:38:21.744Z,16.13
2022-12-01T21:40:57.613Z,16.07
2022-12-01T21:43:26.299Z,16.73
2022-12-01T21:46:15.507Z,16.17
2022-12-01T21:48:44.125Z,15.27
2022-12-01T21:51:17.955Z,18.20
2022-12-01T21:53:46.352Z,17.63
2022-12-01T21:56:20.581Z,16.37
2022-12-01T21:58:51.964Z,17.77
2022-12-01T22:01:25.781Z,17.83
2022-12-01T22:04:01.669Z,15.40
2022-12-01T22:06:38.809Z,16.77
2022-12-01T22:09:16.058Z,16.80
2022-12-01T22:11:48.784Z,16.07
2022-12-01T22:14:18.289Z,16.90
2022-12-01T22:16:51.605Z,17.30
2022-12-01T22:19:32.503Z,16.57
2022-12-01T22:22:25.202Z,17.03
2022-12-01T22:24:54.121Z,17.03
2022-12-01T22:27:29.224Z,18.37
2022-12-01T22:29:59.250Z,16.97
2022-12-01T22:32:42.086Z,17.90
2022-12-01T22:35:34.177Z,17.70
2022-12-01T22:38:22.683Z,18.83
2022-12-01T22:40:56.821Z,19.53
2022-12-01T22:43:31.924Z,18.53
2022-12-01T22:46:17.191Z,17.40
2022-12-01T22:48:54.020Z,17.70
2022-12-01T22:51:27.581Z,18.40
2022-12-01T22:53:59.833Z,19.57
2022-12-01T22:56:33.507Z,19.17
2022-12-01T22:59:04.474Z,19.80
2022-12-01T23:01:33.986Z,18.53
2022-12-01T23:04:21.089Z,20.10
2022-12-01T23:06:57.961Z,19.43
2022-12-01T23:09:32.843Z,21.70
2022-12-01T23:12:03.143Z,20.17
2022-12-01T23:14:31.412Z,20.20
2022-12-01T23:17:06.580Z,21.47
2022-12-01T23:19:37.594Z,20.40
2022-12-01T23:22:05.787Z,21.90
2022-12-01T23:24:35.534Z,22.47
2022-12-01T23:27:03.887Z,21.67
2022-12-01T23:29:36.862Z,25.53
2022-12-01T23:32:05.552Z,22.60
2022-12-01T23:34:34.805Z,23.57
2022-12-01T23:37:03.254Z,24.00
2022-12-01T23:39:33.066Z,24.37
2022-12-01T23:42:02.745Z,24.30
2022-12-01T23:44:38.688Z,24.27
2022-12-01T23:47:10.342Z,24.87
2022-12-01T23:49:44.665Z,26.23
2022-12-01T23:52:14.216Z,23.80
2022-12-01T23:54:42.489Z,24.93
2022-12-01T23:57:18.691Z,22.10
2022-12-01T23:59:57.565Z,24.10
